sensor_id;sensor_type;location;lat;lon;timestamp;pressure;altitude;pressure_sealevel;temperature;humidity
41254;BME280;26987;59.928;30.306;2023-02-01T00:00:13;99097.28;;;0.25;100.00
41254;BME280;26987;59.928;30.306;2023-02-01T00:02:41;99113.66;;;0.35;100.00
41254;BME280;26987;59.928;30.306;2023-02-01T00:05:10;99116.94;;;0.37;100.00
41254;BME280;26987;59.928;30.306;2023-02-01T00:07:38;99121.38;;;0.37;100.00
41254;BME280;26987;59.928;30.306;2023-02-01T00:10:09;99118.09;;;0.35;100.00
41254;BME280;26987;59.928;30.306;2023-02-01T00:12:37;99119.75;;;0.36;100.00
41254;BME280;26987;59.928;30.306;2023-02-01T00:15:06;99116.47;;;0.34;100.00
41254;BME280;26987;59.928;30.306;2023-02-01T00:17:34;99116.47;;;0.34;100.00
41254;BME280;26987;59.928;30.306;2023-02-01T00:20:02;99117.75;;;0.38;100.00
41254;BME280;26987;59.928;30.306;2023-02-01T00:22:30;99110.72;;;0.30;100.00
41254;BME280;26987;59.928;30.306;2023-02-01T00:24:58;99124.84;;;0.37;100.00
41254;BME280;26987;59.928;30.306;2023-02-01T00:27:27;99126.19;;;0.33;100.00
41254;BME280;26987;59.928;30.306;2023-02-01T00:29:55;99123.09;;;0.30;100.00
41254;BME280;26987;59.928;30.306;2023-02-01T00:32:23;99134.94;;;0.34;100.00
41254;BME280;26987;59.928;30.306;2023-02-01T00:34:51;99137.09;;;0.30;100.00
41254;BME280;26987;59.928;30.306;2023-02-01T00:37:19;99131.06;;;0.21;100.00
41254;BME280;26987;59.928;30.306;2023-02-01T00:39:48;99131.59;;;0.17;100.00
41254;BME280;26987;59.928;30.306;2023-02-01T00:42:16;99141.78;;;0.20;100.00
41254;BME280;26987;59.928;30.306;2023-02-01T00:44:47;99142.28;;;0.23;100.00
41254;BME280;26987;59.928;30.306;2023-02-01T00:47:15;99155.63;;;0.22;100.00
41254;BME280;26987;59.928;30.306;2023-02-01T00:49:43;99149.34;;;0.23;100.00
41254;BME280;26987;59.928;30.306;2023-02-01T00:52:11;99159.53;;;0.26;100.00
41254;BME280;26987;59.928;30.306;2023-02-01T00:54:39;99162.19;;;0.26;100.00
41254;BME280;26987;59.928;30.306;2023-02-01T00:57:06;99161.38;;;0.26;100.00
41254;BME280;26987;59.928;30.306;2023-02-01T00:59:35;99158.75;;;0.26;100.00
41254;BME280;26987;59.928;30.306;2023-02-01T01:02:04;99166.28;;;0.29;100.00
41254;BME280;26987;59.928;30.306;2023-02-01T01:04:32;99154.19;;;0.19;100.00
41254;BME280;26987;59.928;30.306;2023-02-01T01:06:59;99164.19;;;0.24;100.00
41254;BME280;26987;59.928;30.306;2023-02-01T01:09:27;99172.91;;;0.24;99.39
41254;BME280;26987;59.928;30.306;2023-02-01T01:11:55;99166.19;;;0.22;99.39
41254;BME280;26987;59.928;30.306;2023-02-01T01:14:23;99171.44;;;0.22;98.67
41254;BME280;26987;59.928;30.306;2023-02-01T01:16:51;99174.44;;;0.19;99.09
41254;BME280;26987;59.928;30.306;2023-02-01T01:19:20;99161.34;;;0.10;98.89
41254;BME280;26987;59.928;30.306;2023-02-01T01:21:48;99175.28;;;0.19;99.21
41254;BME280;26987;59.928;30.306;2023-02-01T01:24:16;99180.72;;;0.18;98.52
41254;BME280;26987;59.928;30.306;2023-02-01T01:26:44;99177.78;;;0.12;98.79
41254;BME280;26987;59.928;30.306;2023-02-01T01:29:12;99183.53;;;0.16;98.99
41254;BME280;26987;59.928;30.306;2023-02-01T01:31:39;99164.59;;;0.12;98.90
41254;BME280;26987;59.928;30.306;2023-02-01T01:34:08;99137.75;;;-0.06;98.76
41254;BME280;26987;59.928;30.306;2023-02-01T01:36:37;99167.72;;;0.16;98.94
41254;BME280;26987;59.928;30.306;2023-02-01T01:39:05;99171.22;;;0.08;98.29
41254;BME280;26987;59.928;30.306;2023-02-01T01:41:34;99183.06;;;0.12;98.40
41254;BME280;26987;59.928;30.306;2023-02-01T01:47:16;99187.69;;;0.10;98.34
41254;BME280;26987;59.928;30.306;2023-02-01T01:49:44;99186.22;;;0.08;98.43
41254;BME280;26987;59.928;30.306;2023-02-01T01:52:14;99193.16;;;0.09;98.55
41254;BME280;26987;59.928;30.306;2023-02-01T01:54:44;99168.06;;;-0.10;98.48
41254;BME280;26987;59.928;30.306;2023-02-01T01:57:19;99198.88;;;0.12;99.45
41254;BME280;26987;59.928;30.306;2023-02-01T01:59:48;99191.50;;;0.31;99.12
41254;BME280;26987;59.928;30.306;2023-02-01T02:02:18;99177.19;;;0.02;97.76
41254;BME280;26987;59.928;30.306;2023-02-01T02:04:46;99189.16;;;0.13;98.42
41254;BME280;26987;59.928;30.306;2023-02-01T02:07:19;99203.09;;;0.22;97.87
41254;BME280;26987;59.928;30.306;2023-02-01T02:09:49;99215.25;;;0.23;97.95
41254;BME280;26987;59.928;30.306;2023-02-01T02:12:17;99211.19;;;0.20;97.49
41254;BME280;26987;59.928;30.306;2023-02-01T02:14:45;99210.34;;;0.20;97.62
41254;BME280;26987;59.928;30.306;2023-02-01T02:17:22;99192.63;;;0.14;97.84
41254;BME280;26987;59.928;30.306;2023-02-01T02:26:48;99221.13;;;0.33;98.55
41254;BME280;26987;59.928;30.306;2023-02-01T02:29:49;99212.59;;;0.31;97.83
41254;BME280;26987;59.928;30.306;2023-02-01T02:32:47;99221.13;;;0.33;97.39
41254;BME280;26987;59.928;30.306;2023-02-01T02:35:28;99184.75;;;0.05;97.59
41254;BME280;26987;59.928;30.306;2023-02-01T02:38:07;99220.53;;;0.23;97.54
41254;BME280;26987;59.928;30.306;2023-02-01T02:40:46;99219.25;;;0.19;97.81
41254;BME280;26987;59.928;30.306;2023-02-01T02:43:21;99175.59;;;-0.07;97.52
41254;BME280;26987;59.928;30.306;2023-02-01T02:46:14;99216.09;;;0.23;97.49
41254;BME280;26987;59.928;30.306;2023-02-01T02:49:03;99226.47;;;0.25;97.34
41254;BME280;26987;59.928;30.306;2023-02-01T02:51:38;99234.66;;;0.30;97.36
41254;BME280;26987;59.928;30.306;2023-02-01T02:54:29;99221.38;;;0.23;97.76
41254;BME280;26987;59.928;30.306;2023-02-01T02:57:19;99238.94;;;0.31;97.17
41254;BME280;26987;59.928;30.306;2023-02-01T03:00:09;99224.00;;;0.23;97.75
41254;BME280;26987;59.928;30.306;2023-02-01T03:02:55;99233.38;;;0.26;98.63
41254;BME280;26987;59.928;30.306;2023-02-01T03:05:43;99227.16;;;0.19;98.88
41254;BME280;26987;59.928;30.306;2023-02-01T03:08:16;99238.81;;;0.24;99.82
41254;BME280;26987;59.928;30.306;2023-02-01T03:10:53;99222.91;;;0.18;100.00
41254;BME280;26987;59.928;30.306;2023-02-01T03:13:31;99232.09;;;0.22;100.00
41254;BME280;26987;59.928;30.306;2023-02-01T03:16:05;99240.19;;;0.20;100.00
41254;BME280;26987;59.928;30.306;2023-02-01T03:18:38;99229.53;;;0.14;99.68
41254;BME280;26987;59.928;30.306;2023-02-01T03:21:13;99243.00;;;0.19;99.90
41254;BME280;26987;59.928;30.306;2023-02-01T03:23:44;99246.09;;;0.22;99.64
41254;BME280;26987;59.928;30.306;2023-02-01T03:26:16;99249.38;;;0.24;99.07
41254;BME280;26987;59.928;30.306;2023-02-01T03:28:52;99236.72;;;0.20;99.11
41254;BME280;26987;59.928;30.306;2023-02-01T03:31:23;99232.63;;;0.17;99.30
41254;BME280;26987;59.928;30.306;2023-02-01T03:33:52;99241.97;;;0.20;98.37
41254;BME280;26987;59.928;30.306;2023-02-01T03:36:25;99247.84;;;0.30;98.11
41254;BME280;26987;59.928;30.306;2023-02-01T03:39:01;99256.41;;;0.32;98.29
41254;BME280;26987;59.928;30.306;2023-02-01T03:41:35;99251.47;;;0.29;97.97
41254;BME280;26987;59.928;30.306;2023-02-01T03:44:08;99252.81;;;0.48;98.10
41254;BME280;26987;59.928;30.306;2023-02-01T03:46:41;99251.97;;;0.33;96.94
41254;BME280;26987;59.928;30.306;2023-02-01T03:49:18;99255.13;;;0.28;96.78
41254;BME280;26987;59.928;30.306;2023-02-01T03:51:49;99256.31;;;0.26;97.02
41254;BME280;26987;59.928;30.306;2023-02-01T03:54:20;99252.69;;;0.18;97.26
41254;BME280;26987;59.928;30.306;2023-02-01T03:56:50;99269.66;;;0.24;96.83
41254;BME280;26987;59.928;30.306;2023-02-01T03:59:18;99262.91;;;0.21;96.58
41254;BME280;26987;59.928;30.306;2023-02-01T04:01:46;99267.53;;;0.19;96.01
41254;BME280;26987;59.928;30.306;2023-02-01T04:04:14;99270.34;;;0.18;96.70
41254;BME280;26987;59.928;30.306;2023-02-01T04:06:48;99230.31;;;-0.09;96.48
41254;BME280;26987;59.928;30.306;2023-02-01T04:09:17;99267.72;;;0.18;96.23
41254;BME280;26987;59.928;30.306;2023-02-01T04:11:46;99279.25;;;0.17;96.44
41254;BME280;26987;59.928;30.306;2023-02-01T04:14:14;99268.06;;;0.15;96.60
41254;BME280;26987;59.928;30.306;2023-02-01T04:16:42;99273.16;;;0.16;96.38
41254;BME280;26987;59.928;30.306;2023-02-01T04:19:10;99273.16;;;0.16;96.05
41254;BME280;26987;59.928;30.306;2023-02-01T04:21:37;99279.25;;;0.17;95.91
41254;BME280;26987;59.928;30.306;2023-02-01T04:24:06;99288.63;;;0.19;95.85
41254;BME280;26987;59.928;30.306;2023-02-01T04:26:34;99290.16;;;0.14;95.96
41254;BME280;26987;59.928;30.306;2023-02-01T04:29:04;99278.00;;;0.04;96.83
41254;BME280;26987;59.928;30.306;2023-02-01T04:31:32;99296.53;;;0.19;96.00
41254;BME280;26987;59.928;30.306;2023-02-01T04:34:02;99304.47;;;0.19;95.87
41254;BME280;26987;59.928;30.306;2023-02-01T04:36:30;99303.63;;;0.19;95.74
41254;BME280;26987;59.928;30.306;2023-02-01T04:38:58;99314.84;;;0.21;95.90
41254;BME280;26987;59.928;30.306;2023-02-01T04:41:26;99312.19;;;0.21;95.44
41254;BME280;26987;59.928;30.306;2023-02-01T04:43:55;99317.16;;;0.16;94.84
41254;BME280;26987;59.928;30.306;2023-02-01T04:46:24;99308.31;;;0.08;95.04
41254;BME280;26987;59.928;30.306;2023-02-01T04:48:52;99312.22;;;0.12;95.35
41254;BME280;26987;59.928;30.306;2023-02-01T04:51:20;99317.50;;;0.12;95.47
41254;BME280;26987;59.928;30.306;2023-02-01T04:53:48;99318.66;;;0.10;95.51
41254;BME280;26987;59.928;30.306;2023-02-01T04:56:16;99325.41;;;0.12;95.35
41254;BME280;26987;59.928;30.306;2023-02-01T04:58:43;99333.81;;;0.16;95.24
41254;BME280;26987;59.928;30.306;2023-02-01T05:01:11;99335.44;;;0.17;95.20
41254;BME280;26987;59.928;30.306;2023-02-01T05:03:41;99335.59;;;0.16;94.96
41254;BME280;26987;59.928;30.306;2023-02-01T05:06:08;99332.84;;;0.09;95.08
41254;BME280;26987;59.928;30.306;2023-02-01T05:08:36;99332.34;;;0.14;94.63
41254;BME280;26987;59.928;30.306;2023-02-01T05:11:04;99335.94;;;0.12;94.61
41254;BME280;26987;59.928;30.306;2023-02-01T05:13:32;99338.31;;;0.07;94.55
41254;BME280;26987;59.928;30.306;2023-02-01T05:16:14;99334.16;;;0.05;94.67
41254;BME280;26987;59.928;30.306;2023-02-01T05:18:44;99333.38;;;0.04;94.38
41254;BME280;26987;59.928;30.306;2023-02-01T05:21:12;99339.84;;;-0.07;94.82
41254;BME280;26987;59.928;30.306;2023-02-01T05:23:40;99334.63;;;-0.15;95.31
41254;BME280;26987;59.928;30.306;2023-02-01T05:26:21;99348.47;;;-0.21;95.40
41254;BME280;26987;59.928;30.306;2023-02-01T05:28:50;99343.03;;;-0.28;95.63
41254;BME280;26987;59.928;30.306;2023-02-01T05:31:17;99347.69;;;-0.30;96.17
41254;BME280;26987;59.928;30.306;2023-02-01T05:33:47;99344.72;;;-0.35;96.51
41254;BME280;26987;59.928;30.306;2023-02-01T05:36:15;99350.47;;;-0.32;96.50
41254;BME280;26987;59.928;30.306;2023-02-01T05:38:42;99348.81;;;-0.33;96.84
41254;BME280;26987;59.928;30.306;2023-02-01T05:41:10;99353.28;;;-0.33;96.56
41254;BME280;26987;59.928;30.306;2023-02-01T05:43:38;99327.00;;;-0.50;96.25
41254;BME280;26987;59.928;30.306;2023-02-01T05:46:06;99348.53;;;-0.38;96.29
41254;BME280;26987;59.928;30.306;2023-02-01T05:48:36;99336.19;;;-0.46;96.80
41254;BME280;26987;59.928;30.306;2023-02-01T05:51:06;99351.94;;;-0.38;96.67
41254;BME280;26987;59.928;30.306;2023-02-01T05:53:34;99347.72;;;-0.47;96.05
41254;BME280;26987;59.928;30.306;2023-02-01T05:56:03;99358.56;;;-0.42;96.65
41254;BME280;26987;59.928;30.306;2023-02-01T05:58:31;99364.81;;;-0.43;96.39
41254;BME280;26987;59.928;30.306;2023-02-01T06:00:59;99363.19;;;-0.52;96.38
41254;BME280;26987;59.928;30.306;2023-02-01T06:03:28;99382.59;;;-0.45;96.49
41254;BME280;26987;59.928;30.306;2023-02-01T06:05:56;99375.34;;;-0.43;96.16
41254;BME280;26987;59.928;30.306;2023-02-01T06:08:25;99371.25;;;-0.45;96.39
41254;BME280;26987;59.928;30.306;2023-02-01T06:10:57;99369.13;;;-0.50;95.30
41254;BME280;26987;59.928;30.306;2023-02-01T06:13:27;99375.69;;;-0.46;94.55
41254;BME280;26987;59.928;30.306;2023-02-01T06:15:54;99366.16;;;-0.55;95.03
41254;BME280;26987;59.928;30.306;2023-02-01T06:18:23;99375.03;;;-0.48;94.77
41254;BME280;26987;59.928;30.306;2023-02-01T06:20:55;99368.16;;;-0.57;94.24
41254;BME280;26987;59.928;30.306;2023-02-01T06:23:25;99380.66;;;-0.59;94.15
41254;BME280;26987;59.928;30.306;2023-02-01T06:25:57;99371.94;;;-0.68;94.22
41254;BME280;26987;59.928;30.306;2023-02-01T06:28:26;99385.75;;;-0.66;94.99
41254;BME280;26987;59.928;30.306;2023-02-01T06:30:54;99346.78;;;-0.96;93.34
41254;BME280;26987;59.928;30.306;2023-02-01T06:33:22;99390.88;;;-0.73;93.76
41254;BME280;26987;59.928;30.306;2023-02-01T06:35:56;99379.84;;;-0.68;92.96
41254;BME280;26987;59.928;30.306;2023-02-01T06:38:26;99381.66;;;-0.77;91.65
41254;BME280;26987;59.928;30.306;2023-02-01T06:40:55;99384.97;;;-0.83;91.10
41254;BME280;26987;59.928;30.306;2023-02-01T06:43:24;99397.31;;;-0.75;91.35
41254;BME280;26987;59.928;30.306;2023-02-01T06:45:53;99404.19;;;-0.74;91.67
41254;BME280;26987;59.928;30.306;2023-02-01T06:48:21;99395.97;;;-0.80;91.63
41254;BME280;26987;59.928;30.306;2023-02-01T06:50:48;99403.53;;;-0.77;92.63
41254;BME280;26987;59.928;30.306;2023-02-01T06:53:17;99402.72;;;-0.85;92.56
41254;BME280;26987;59.928;30.306;2023-02-01T06:55:53;99378.06;;;-0.93;92.74
41254;BME280;26987;59.928;30.306;2023-02-01T06:58:21;99388.75;;;-0.94;92.92
41254;BME280;26987;59.928;30.306;2023-02-01T07:00:49;99415.22;;;-0.79;93.46
41254;BME280;26987;59.928;30.306;2023-02-01T07:03:17;99403.38;;;-0.83;93.95
41254;BME280;26987;59.928;30.306;2023-02-01T07:05:45;99411.44;;;-0.77;93.60
41254;BME280;26987;59.928;30.306;2023-02-01T07:08:13;99414.56;;;-0.81;94.05
41254;BME280;26987;59.928;30.306;2023-02-01T07:10:41;99414.88;;;-0.68;94.12
41254;BME280;26987;59.928;30.306;2023-02-01T07:13:10;99426.41;;;-0.60;92.84
41254;BME280;26987;59.928;30.306;2023-02-01T07:15:38;99428.53;;;-0.56;92.45
41254;BME280;26987;59.928;30.306;2023-02-01T07:18:06;99430.03;;;-0.53;92.20
41254;BME280;26987;59.928;30.306;2023-02-01T07:20:33;99442.03;;;-0.42;92.05
41254;BME280;26987;59.928;30.306;2023-02-01T07:23:01;99439.38;;;-0.34;91.89
41254;BME280;26987;59.928;30.306;2023-02-01T07:25:29;99445.13;;;-0.22;91.76
41254;BME280;26987;59.928;30.306;2023-02-01T07:27:57;99426.69;;;-0.22;91.30
41254;BME280;26987;59.928;30.306;2023-02-01T07:30:26;99453.66;;;-0.03;89.83
41254;BME280;26987;59.928;30.306;2023-02-01T07:32:54;99455.25;;;0.06;89.02
41254;BME280;26987;59.928;30.306;2023-02-01T07:35:25;99453.28;;;0.08;87.68
41254;BME280;26987;59.928;30.306;2023-02-01T07:37:53;99460.97;;;0.18;86.55
41254;BME280;26987;59.928;30.306;2023-02-01T07:40:21;99460.66;;;0.21;86.93
41254;BME280;26987;59.928;30.306;2023-02-01T07:42:54;99454.69;;;0.28;85.89
41254;BME280;26987;59.928;30.306;2023-02-01T07:45:22;99462.94;;;0.33;84.94
41254;BME280;26987;59.928;30.306;2023-02-01T07:47:52;99466.69;;;0.39;85.25
41254;BME280;26987;59.928;30.306;2023-02-01T07:50:20;99477.41;;;0.37;83.71
41254;BME280;26987;59.928;30.306;2023-02-01T07:52:48;99447.63;;;0.20;82.59
41254;BME280;26987;59.928;30.306;2023-02-01T07:55:16;99475.13;;;0.34;82.25
41254;BME280;26987;59.928;30.306;2023-02-01T07:57:44;99482.53;;;0.39;82.36
41254;BME280;26987;59.928;30.306;2023-02-01T08:00:13;99483.81;;;0.43;81.55
41254;BME280;26987;59.928;30.306;2023-02-01T08:03:00;99484.47;;;0.45;81.29
41254;BME280;26987;59.928;30.306;2023-02-01T08:05:28;99486.28;;;0.44;81.29
41254;BME280;26987;59.928;30.306;2023-02-01T08:07:56;99480.84;;;0.46;81.62
41254;BME280;26987;59.928;30.306;2023-02-01T08:10:24;99480.50;;;0.49;82.77
41254;BME280;26987;59.928;30.306;2023-02-01T08:12:52;99482.31;;;0.48;82.88
41254;BME280;26987;59.928;30.306;2023-02-01T08:15:25;99482.63;;;0.45;83.14
41254;BME280;26987;59.928;30.306;2023-02-01T08:17:53;99450.75;;;0.23;82.32
41254;BME280;26987;59.928;30.306;2023-02-01T08:20:23;99484.78;;;0.50;82.51
41254;BME280;26987;59.928;30.306;2023-02-01T08:22:52;99488.72;;;0.54;82.40
41254;BME280;26987;59.928;30.306;2023-02-01T08:25:20;99489.38;;;0.56;82.15
41254;BME280;26987;59.928;30.306;2023-02-01T08:27:48;99461.88;;;0.42;80.40
41254;BME280;26987;59.928;30.306;2023-02-01T08:30:17;99491.00;;;0.57;80.72
41254;BME280;26987;59.928;30.306;2023-02-01T08:32:45;99477.34;;;0.54;80.24
41254;BME280;26987;59.928;30.306;2023-02-01T08:35:12;99478.88;;;0.48;79.20
41254;BME280;26987;59.928;30.306;2023-02-01T08:37:42;99498.41;;;0.62;79.28
41254;BME280;26987;59.928;30.306;2023-02-01T08:40:11;99485.91;;;0.56;80.21
41254;BME280;26987;59.928;30.306;2023-02-01T08:42:40;99489.97;;;0.67;80.81
41254;BME280;26987;59.928;30.306;2023-02-01T08:45:21;99489.97;;;0.67;81.43
41254;BME280;26987;59.928;30.306;2023-02-01T08:47:50;99501.31;;;0.75;81.17
41254;BME280;26987;59.928;30.306;2023-02-01T08:50:18;99486.72;;;0.65;82.21
41254;BME280;26987;59.928;30.306;2023-02-01T08:52:48;99498.03;;;0.73;82.46
41254;BME280;26987;59.928;30.306;2023-02-01T08:55:16;99493.91;;;0.71;82.82
41254;BME280;26987;59.928;30.306;2023-02-01T08:57:44;99494.72;;;0.71;82.68
41254;BME280;26987;59.928;30.306;2023-02-01T09:00:14;99493.56;;;0.74;82.87
41254;BME280;26987;59.928;30.306;2023-02-01T09:02:43;99497.03;;;0.74;82.76
41254;BME280;26987;59.928;30.306;2023-02-01T09:05:11;99484.84;;;0.73;82.79
41254;BME280;26987;59.928;30.306;2023-02-01T09:07:40;99495.50;;;0.80;82.50
41254;BME280;26987;59.928;30.306;2023-02-01T09:10:10;99499.28;;;0.86;82.31
41254;BME280;26987;59.928;30.306;2023-02-01T09:12:38;99489.88;;;0.83;82.13
41254;BME280;26987;59.928;30.306;2023-02-01T09:15:07;99500.94;;;0.87;81.49
41254;BME280;26987;59.928;30.306;2023-02-01T09:17:35;99488.59;;;0.79;79.81
41254;BME280;26987;59.928;30.306;2023-02-01T09:20:04;99443.78;;;0.39;79.89
41254;BME280;26987;59.928;30.306;2023-02-01T09:22:32;99505.47;;;0.70;80.04
41254;BME280;26987;59.928;30.306;2023-02-01T09:25:00;99502.81;;;0.70;80.59
41254;BME280;26987;59.928;30.306;2023-02-01T09:27:29;99498.41;;;0.62;80.68
41254;BME280;26987;59.928;30.306;2023-02-01T09:29:57;99504.16;;;0.66;81.01
41254;BME280;26987;59.928;30.306;2023-02-01T09:32:25;99506.31;;;0.62;80.91
41254;BME280;26987;59.928;30.306;2023-02-01T09:34:53;99477.38;;;0.45;80.76
41254;BME280;26987;59.928;30.306;2023-02-01T09:37:20;99513.88;;;0.65;81.29
41254;BME280;26987;59.928;30.306;2023-02-01T09:39:48;99511.91;;;0.67;81.47
41254;BME280;26987;59.928;30.306;2023-02-01T09:42:42;99517.47;;;0.81;82.71
41254;BME280;26987;59.928;30.306;2023-02-01T09:45:20;99501.19;;;0.69;82.39
41254;BME280;26987;59.928;30.306;2023-02-01T09:47:54;99500.00;;;0.71;82.90
41254;BME280;26987;59.928;30.306;2023-02-01T09:50:28;99516.78;;;0.79;82.70
41254;BME280;26987;59.928;30.306;2023-02-01T09:53:01;99423.72;;;0.21;82.58
41254;BME280;26987;59.928;30.306;2023-02-01T09:55:34;99504.94;;;0.74;82.37
41254;BME280;26987;59.928;30.306;2023-02-01T09:58:06;99510.88;;;0.77;80.91
41254;BME280;26987;59.928;30.306;2023-02-01T10:00:38;99513.03;;;0.73;80.86
41254;BME280;26987;59.928;30.306;2023-02-01T10:03:11;99516.84;;;0.70;79.92
41254;BME280;26987;59.928;30.306;2023-02-01T10:05:55;99511.41;;;0.63;78.47
41254;BME280;26987;59.928;30.306;2023-02-01T10:08:35;99511.59;;;0.62;78.50
41254;BME280;26987;59.928;30.306;2023-02-01T10:11:20;99518.03;;;0.68;78.03
41254;BME280;26987;59.928;30.306;2023-02-01T10:13:56;99519.75;;;0.84;79.44
41254;BME280;26987;59.928;30.306;2023-02-01T10:16:33;99512.38;;;0.71;77.74
41254;BME280;26987;59.928;30.306;2023-02-01T10:19:23;99520.63;;;0.76;79.67
41254;BME280;26987;59.928;30.306;2023-02-01T10:21:56;99521.63;;;0.75;79.08
41254;BME280;26987;59.928;30.306;2023-02-01T10:24:36;99518.63;;;0.78;79.41
41254;BME280;26987;59.928;30.306;2023-02-01T10:27:12;99518.97;;;0.75;80.12
41254;BME280;26987;59.928;30.306;2023-02-01T10:29:44;99515.00;;;0.71;80.77
41254;BME280;26987;59.928;30.306;2023-02-01T10:32:14;99512.75;;;0.68;80.07
41254;BME280;26987;59.928;30.306;2023-02-01T10:34:46;99514.22;;;0.70;80.36
41254;BME280;26987;59.928;30.306;2023-02-01T10:37:26;99524.59;;;0.72;80.92
41254;BME280;26987;59.928;30.306;2023-02-01T10:39:56;99521.47;;;0.68;81.27
41254;BME280;26987;59.928;30.306;2023-02-01T10:42:27;99518.81;;;0.68;80.54
41254;BME280;26987;59.928;30.306;2023-02-01T10:44:59;99486.44;;;0.43;81.02
41254;BME280;26987;59.928;30.306;2023-02-01T10:47:28;99525.28;;;0.66;80.10
41254;BME280;26987;59.928;30.306;2023-02-01T10:50:02;99529.22;;;0.70;79.37
41254;BME280;26987;59.928;30.306;2023-02-01T10:52:44;99518.81;;;0.68;79.11
41254;BME280;26987;59.928;30.306;2023-02-01T10:55:32;99524.94;;;0.69;78.22
41254;BME280;26987;59.928;30.306;2023-02-01T10:58:02;99519.84;;;0.59;77.40
41254;BME280;26987;59.928;30.306;2023-02-01T11:00:41;99520.34;;;0.62;78.20
41254;BME280;26987;59.928;30.306;2023-02-01T11:03:27;99518.03;;;0.59;77.75
41254;BME280;26987;59.928;30.306;2023-02-01T11:05:58;99503.91;;;0.44;77.58
41254;BME280;26987;59.928;30.306;2023-02-01T11:08:27;99527.59;;;0.60;77.53
41254;BME280;26987;59.928;30.306;2023-02-01T11:10:59;99520.34;;;0.62;78.68
41254;BME280;26987;59.928;30.306;2023-02-01T11:13:29;99514.03;;;0.72;78.27
41254;BME280;26987;59.928;30.306;2023-02-01T11:16:01;99523.84;;;0.86;78.89
41254;BME280;26987;59.928;30.306;2023-02-01T11:18:31;99522.06;;;0.87;78.10
41254;BME280;26987;59.928;30.306;2023-02-01T11:20:59;99524.19;;;0.92;77.00
41254;BME280;26987;59.928;30.306;2023-02-01T11:23:29;99528.56;;;0.99;78.08
41254;BME280;26987;59.928;30.306;2023-02-01T11:26:01;99530.06;;;1.02;76.92
41254;BME280;26987;59.928;30.306;2023-02-01T11:28:35;99518.81;;;1.32;78.54
41254;BME280;26987;59.928;30.306;2023-02-01T11:31:11;99510.13;;;1.23;76.88
41254;BME280;26987;59.928;30.306;2023-02-01T11:33:47;99509.41;;;1.29;76.07
41254;BME280;26987;59.928;30.306;2023-02-01T11:36:17;99518.69;;;1.25;75.08
41254;BME280;26987;59.928;30.306;2023-02-01T11:38:52;99520.63;;;1.31;75.50
41254;BME280;26987;59.928;30.306;2023-02-01T11:41:23;99518.69;;;1.25;75.66
41254;BME280;26987;59.928;30.306;2023-02-01T11:43:54;99480.88;;;1.01;75.99
41254;BME280;26987;59.928;30.306;2023-02-01T11:46:27;99522.66;;;1.21;76.71
41254;BME280;26987;59.928;30.306;2023-02-01T11:48:57;99513.28;;;1.18;76.38
41254;BME280;26987;59.928;30.306;2023-02-01T11:51:49;99524.78;;;1.25;76.46
41254;BME280;26987;59.928;30.306;2023-02-01T11:54:48;99513.03;;;1.28;77.22
41254;BME280;26987;59.928;30.306;2023-02-01T11:57:33;99516.34;;;1.30;76.56
41254;BME280;26987;59.928;30.306;2023-02-01T12:00:16;99496.97;;;1.15;77.69
41254;BME280;26987;59.928;30.306;2023-02-01T12:03:04;99526.91;;;1.30;76.19
41254;BME280;26987;59.928;30.306;2023-02-01T12:05:45;99516.75;;;1.19;76.02
41254;BME280;26987;59.928;30.306;2023-02-01T12:08:32;99515.75;;;1.20;75.70
41254;BME280;26987;59.928;30.306;2023-02-01T12:11:21;99513.47;;;1.17;75.75
41254;BME280;26987;59.928;30.306;2023-02-01T12:14:01;99510.88;;;1.08;76.32
41254;BME280;26987;59.928;30.306;2023-02-01T12:16:38;99512.56;;;1.01;76.44
41254;BME280;26987;59.928;30.306;2023-02-01T12:19:23;99486.31;;;0.76;77.11
41254;BME280;26987;59.928;30.306;2023-02-01T12:22:11;99510.81;;;0.93;76.88
41254;BME280;26987;59.928;30.306;2023-02-01T12:24:52;99520.19;;;0.96;78.36
41254;BME280;26987;59.928;30.306;2023-02-01T12:27:48;99529.41;;;1.00;78.22
41254;BME280;26987;59.928;30.306;2023-02-01T12:30:40;99528.88;;;1.05;78.19
41254;BME280;26987;59.928;30.306;2023-02-01T12:33:19;99536.94;;;1.11;79.05
41254;BME280;26987;59.928;30.306;2023-02-01T12:36:01;99534.09;;;1.13;78.89
41254;BME280;26987;59.928;30.306;2023-02-01T12:38:45;99522.41;;;1.07;78.46
41254;BME280;26987;59.928;30.306;2023-02-01T12:41:36;99530.66;;;1.12;78.93
41254;BME280;26987;59.928;30.306;2023-02-01T12:44:11;99528.72;;;1.06;78.30
41254;BME280;26987;59.928;30.306;2023-02-01T12:46:43;99489.97;;;0.67;78.96
41254;BME280;26987;59.928;30.306;2023-02-01T12:49:14;99527.97;;;0.89;79.54
41254;BME280;26987;59.928;30.306;2023-02-01T12:51:48;99525.66;;;0.86;80.26
41254;BME280;26987;59.928;30.306;2023-02-01T12:54:20;99517.13;;;0.84;81.41
41254;BME280;26987;59.928;30.306;2023-02-01T12:56:52;99522.50;;;0.91;81.04
41254;BME280;26987;59.928;30.306;2023-02-01T12:59:26;99523.50;;;0.90;81.76
41254;BME280;26987;59.928;30.306;2023-02-01T13:02:01;99530.44;;;0.91;81.08
41254;BME280;26987;59.928;30.306;2023-02-01T13:04:37;99527.97;;;0.89;81.91
41254;BME280;26987;59.928;30.306;2023-02-01T13:07:13;99523.03;;;0.86;81.68
41254;BME280;26987;59.928;30.306;2023-02-01T13:09:44;99511.06;;;0.75;81.94
41254;BME280;26987;59.928;30.306;2023-02-01T13:12:17;99482.13;;;0.50;81.81
41254;BME280;26987;59.928;30.306;2023-02-01T13:14:51;99523.91;;;0.78;82.16
41254;BME280;26987;59.928;30.306;2023-02-01T13:17:23;99491.00;;;0.57;81.39
41254;BME280;26987;59.928;30.306;2023-02-01T13:19:54;99527.56;;;0.69;82.41
41254;BME280;26987;59.928;30.306;2023-02-01T13:22:29;99534.19;;;0.65;82.46
41254;BME280;26987;59.928;30.306;2023-02-01T13:25:00;99532.19;;;0.67;84.42
41254;BME280;26987;59.928;30.306;2023-02-01T13:27:29;99526.28;;;0.65;83.62
41254;BME280;26987;59.928;30.306;2023-02-01T13:30:00;99520.34;;;0.62;84.09
41254;BME280;26987;59.928;30.306;2023-02-01T13:32:59;99519.00;;;0.67;84.14